sensor_id;sensor_type;location;lat;lon;timestamp;P1;durP1;ratioP1;P2;durP2;ratioP2
44670;SDS011;48397;53.016;-2.260;2022-07-23T00:00:31;21.65;;;12.40;;
44670;SDS011;48397;53.016;-2.260;2022-07-23T00:03:05;23.67;;;13.10;;
44670;SDS011;48397;53.016;-2.260;2022-07-23T00:08:01;25.42;;;12.93;;
44670;SDS011;48397;53.016;-2.260;2022-07-23T00:10:29;21.70;;;12.95;;
44670;SDS011;48397;53.016;-2.260;2022-07-23T00:15:24;24.80;;;12.98;;
44670;SDS011;48397;53.016;-2.260;2022-07-23T00:17:52;24.52;;;12.40;;
44670;SDS011;48397;53.016;-2.260;2022-07-23T00:20:20;23.27;;;11.65;;
44670;SDS011;48397;53.016;-2.260;2022-07-23T00:22:48;20.23;;;11.63;;
44670;SDS011;48397;53.016;-2.260;2022-07-23T00:25:18;20.90;;;12.25;;
44670;SDS011;48397;53.016;-2.260;2022-07-23T00:27:58;26.88;;;14.45;;
44670;SDS011;48397;53.016;-2.260;2022-07-23T00:30:27;29.23;;;14.77;;
44670;SDS011;48397;53.016;-2.260;2022-07-23T00:33:02;27.35;;;13.65;;
44670;SDS011;48397;53.016;-2.260;2022-07-23T00:35:33;30.15;;;15.77;;
44670;SDS011;48397;53.016;-2.260;2022-07-23T00:38:03;27.40;;;14.48;;
44670;SDS011;48397;53.016;-2.260;2022-07-23T00:40:32;33.20;;;16.75;;
44670;SDS011;48397;53.016;-2.260;2022-07-23T00:43:00;26.52;;;14.57;;
44670;SDS011;48397;53.016;-2.260;2022-07-23T00:45:28;28.20;;;14.70;;
44670;SDS011;48397;53.016;-2.260;2022-07-23T00:47:56;32.22;;;16.30;;
44670;SDS011;48397;53.016;-2.260;2022-07-23T00:50:24;26.50;;;14.60;;
44670;SDS011;48397;53.016;-2.260;2022-07-23T00:53:00;30.08;;;14.68;;
44670;SDS011;48397;53.016;-2.260;2022-07-23T00:55:28;25.33;;;13.90;;
44670;SDS011;48397;53.016;-2.260;2022-07-23T00:57:56;29.88;;;15.57;;
44670;SDS011;48397;53.016;-2.260;2022-07-23T01:00:25;28.27;;;14.70;;
44670;SDS011;48397;53.016;-2.260;2022-07-23T01:02:53;29.70;;;16.60;;
44670;SDS011;48397;53.016;-2.260;2022-07-23T01:07:51;32.80;;;15.20;;
44670;SDS011;48397;53.016;-2.260;2022-07-23T01:10:23;32.10;;;16.38;;
44670;SDS011;48397;53.016;-2.260;2022-07-23T01:13:05;34.60;;;18.02;;
44670;SDS011;48397;53.016;-2.260;2022-07-23T01:15:36;31.65;;;16.70;;
44670;SDS011;48397;53.016;-2.260;2022-07-23T01:18:05;33.47;;;17.02;;
44670;SDS011;48397;53.016;-2.260;2022-07-23T01:20:36;34.65;;;17.85;;
44670;SDS011;48397;53.016;-2.260;2022-07-23T01:23:04;35.00;;;17.90;;
44670;SDS011;48397;53.016;-2.260;2022-07-23T01:25:33;32.78;;;17.25;;
44670;SDS011;48397;53.016;-2.260;2022-07-23T01:28:02;34.97;;;17.98;;
44670;SDS011;48397;53.016;-2.260;2022-07-23T01:30:30;30.50;;;15.77;;
44670;SDS011;48397;53.016;-2.260;2022-07-23T01:33:00;35.10;;;18.88;;
44670;SDS011;48397;53.016;-2.260;2022-07-23T01:35:28;36.85;;;20.23;;
44670;SDS011;48397;53.016;-2.260;2022-07-23T01:38:00;33.63;;;17.88;;
44670;SDS011;48397;53.016;-2.260;2022-07-23T01:40:28;33.25;;;17.67;;
44670;SDS011;48397;53.016;-2.260;2022-07-23T01:42:56;35.67;;;17.63;;
44670;SDS011;48397;53.016;-2.260;2022-07-23T01:45:27;35.35;;;19.35;;
44670;SDS011;48397;53.016;-2.260;2022-07-23T01:47:55;35.25;;;18.65;;
44670;SDS011;48397;53.016;-2.260;2022-07-23T01:50:22;33.63;;;18.02;;
44670;SDS011;48397;53.016;-2.260;2022-07-23T01:53:11;32.08;;;17.67;;
44670;SDS011;48397;53.016;-2.260;2022-07-23T01:55:39;33.05;;;17.45;;
44670;SDS011;48397;53.016;-2.260;2022-07-23T01:58:09;33.83;;;17.30;;
44670;SDS011;48397;53.016;-2.260;2022-07-23T02:05:36;35.60;;;18.73;;
44670;SDS011;48397;53.016;-2.260;2022-07-23T02:08:04;34.42;;;17.50;;
44670;SDS011;48397;53.016;-2.260;2022-07-23T02:10:34;35.95;;;18.20;;
44670;SDS011;48397;53.016;-2.260;2022-07-23T02:13:03;34.95;;;18.98;;
44670;SDS011;48397;53.016;-2.260;2022-07-23T02:15:31;33.95;;;16.77;;
44670;SDS011;48397;53.016;-2.260;2022-07-23T02:18:00;27.55;;;12.63;;
44670;SDS011;48397;53.016;-2.260;2022-07-23T02:22:55;34.22;;;16.08;;
44670;SDS011;48397;53.016;-2.260;2022-07-23T02:25:22;35.35;;;17.73;;
44670;SDS011;48397;53.016;-2.260;2022-07-23T02:27:57;40.47;;;16.45;;
44670;SDS011;48397;53.016;-2.260;2022-07-23T02:30:25;39.65;;;16.27;;
44670;SDS011;48397;53.016;-2.260;2022-07-23T02:32:52;44.97;;;19.55;;
44670;SDS011;48397;53.016;-2.260;2022-07-23T02:35:20;40.42;;;16.98;;
44670;SDS011;48397;53.016;-2.260;2022-07-23T02:37:48;40.17;;;17.02;;
44670;SDS011;48397;53.016;-2.260;2022-07-23T02:40:17;44.47;;;19.20;;
44670;SDS011;48397;53.016;-2.260;2022-07-23T02:42:46;46.95;;;18.88;;
44670;SDS011;48397;53.016;-2.260;2022-07-23T02:45:15;45.00;;;19.33;;
44670;SDS011;48397;53.016;-2.260;2022-07-23T02:47:42;41.85;;;18.50;;
44670;SDS011;48397;53.016;-2.260;2022-07-23T02:50:10;47.88;;;21.83;;
44670;SDS011;48397;53.016;-2.260;2022-07-23T02:52:39;50.55;;;19.90;;
44670;SDS011;48397;53.016;-2.260;2022-07-23T02:55:07;47.45;;;20.73;;
44670;SDS011;48397;53.016;-2.260;2022-07-23T03:00:03;48.85;;;20.88;;
44670;SDS011;48397;53.016;-2.260;2022-07-23T03:02:32;48.38;;;21.70;;
44670;SDS011;48397;53.016;-2.260;2022-07-23T03:05:00;48.20;;;21.30;;
44670;SDS011;48397;53.016;-2.260;2022-07-23T03:07:28;46.97;;;21.20;;
44670;SDS011;48397;53.016;-2.260;2022-07-23T03:09:55;48.38;;;21.40;;
44670;SDS011;48397;53.016;-2.260;2022-07-23T03:12:24;47.88;;;21.50;;
44670;SDS011;48397;53.016;-2.260;2022-07-23T03:14:55;44.60;;;19.90;;
44670;SDS011;48397;53.016;-2.260;2022-07-23T03:17:23;42.20;;;20.92;;
44670;SDS011;48397;53.016;-2.260;2022-07-23T03:19:51;45.60;;;21.20;;
44670;SDS011;48397;53.016;-2.260;2022-07-23T03:22:18;46.55;;;21.05;;
44670;SDS011;48397;53.016;-2.260;2022-07-23T03:24:47;41.78;;;20.38;;
44670;SDS011;48397;53.016;-2.260;2022-07-23T03:27:28;44.92;;;19.98;;
44670;SDS011;48397;53.016;-2.260;2022-07-23T03:29:57;44.22;;;19.95;;
44670;SDS011;48397;53.016;-2.260;2022-07-23T03:32:26;44.47;;;20.30;;
44670;SDS011;48397;53.016;-2.260;2022-07-23T03:34:55;43.42;;;21.02;;
44670;SDS011;48397;53.016;-2.260;2022-07-23T03:37:24;49.95;;;20.80;;
44670;SDS011;48397;53.016;-2.260;2022-07-23T03:39:52;53.97;;;22.48;;
44670;SDS011;48397;53.016;-2.260;2022-07-23T03:42:20;46.47;;;22.77;;
44670;SDS011;48397;53.016;-2.260;2022-07-23T03:44:48;49.28;;;21.38;;
44670;SDS011;48397;53.016;-2.260;2022-07-23T03:47:16;48.70;;;19.98;;
44670;SDS011;48397;53.016;-2.260;2022-07-23T03:49:44;44.72;;;20.25;;
44670;SDS011;48397;53.016;-2.260;2022-07-23T03:54:39;40.08;;;18.20;;
44670;SDS011;48397;53.016;-2.260;2022-07-23T03:57:07;35.20;;;16.42;;
44670;SDS011;48397;53.016;-2.260;2022-07-23T03:59:35;38.65;;;18.05;;
44670;SDS011;48397;53.016;-2.260;2022-07-23T04:02:02;34.97;;;17.75;;
44670;SDS011;48397;53.016;-2.260;2022-07-23T04:06:58;37.75;;;17.05;;
44670;SDS011;48397;53.016;-2.260;2022-07-23T04:09:26;33.25;;;14.88;;
44670;SDS011;48397;53.016;-2.260;2022-07-23T04:11:55;31.00;;;16.45;;
44670;SDS011;48397;53.016;-2.260;2022-07-23T04:14:23;32.55;;;14.48;;
44670;SDS011;48397;53.016;-2.260;2022-07-23T04:16:50;40.10;;;18.58;;
44670;SDS011;48397;53.016;-2.260;2022-07-23T04:19:19;36.42;;;18.30;;
44670;SDS011;48397;53.016;-2.260;2022-07-23T04:21:58;38.83;;;18.60;;
44670;SDS011;48397;53.016;-2.260;2022-07-23T04:24:26;43.78;;;19.17;;
44670;SDS011;48397;53.016;-2.260;2022-07-23T04:26:54;40.55;;;18.98;;
44670;SDS011;48397;53.016;-2.260;2022-07-23T04:29:21;44.72;;;18.58;;
44670;SDS011;48397;53.016;-2.260;2022-07-23T04:31:50;36.60;;;16.67;;
44670;SDS011;48397;53.016;-2.260;2022-07-23T04:34:18;38.33;;;18.02;;
44670;SDS011;48397;53.016;-2.260;2022-07-23T04:36:46;37.55;;;18.83;;
44670;SDS011;48397;53.016;-2.260;2022-07-23T04:39:14;35.50;;;15.50;;
44670;SDS011;48397;53.016;-2.260;2022-07-23T04:41:42;36.25;;;17.27;;
44670;SDS011;48397;53.016;-2.260;2022-07-23T04:44:09;39.97;;;18.38;;
44670;SDS011;48397;53.016;-2.260;2022-07-23T04:46:37;35.17;;;15.77;;
44670;SDS011;48397;53.016;-2.260;2022-07-23T04:49:06;39.38;;;15.25;;
44670;SDS011;48397;53.016;-2.260;2022-07-23T04:54:02;44.13;;;19.02;;
44670;SDS011;48397;53.016;-2.260;2022-07-23T04:56:30;45.42;;;19.15;;
44670;SDS011;48397;53.016;-2.260;2022-07-23T04:58:58;40.55;;;18.63;;
44670;SDS011;48397;53.016;-2.260;2022-07-23T05:06:26;42.45;;;17.63;;
44670;SDS011;48397;53.016;-2.260;2022-07-23T05:08:54;43.28;;;18.50;;
44670;SDS011;48397;53.016;-2.260;2022-07-23T05:11:22;40.05;;;17.52;;
44670;SDS011;48397;53.016;-2.260;2022-07-23T05:13:54;44.72;;;18.83;;
44670;SDS011;48397;53.016;-2.260;2022-07-23T05:16:22;42.10;;;17.70;;
44670;SDS011;48397;53.016;-2.260;2022-07-23T05:18:52;48.20;;;19.05;;
44670;SDS011;48397;53.016;-2.260;2022-07-23T05:21:20;44.35;;;18.52;;
44670;SDS011;48397;53.016;-2.260;2022-07-23T05:23:48;42.03;;;18.50;;
44670;SDS011;48397;53.016;-2.260;2022-07-23T05:26:16;45.08;;;18.85;;
44670;SDS011;48397;53.016;-2.260;2022-07-23T05:28:44;44.70;;;18.25;;
44670;SDS011;48397;53.016;-2.260;2022-07-23T05:31:17;43.78;;;18.92;;
44670;SDS011;48397;53.016;-2.260;2022-07-23T05:33:46;42.42;;;17.00;;
44670;SDS011;48397;53.016;-2.260;2022-07-23T05:36:13;44.53;;;18.30;;
44670;SDS011;48397;53.016;-2.260;2022-07-23T05:38:51;38.00;;;16.60;;
44670;SDS011;48397;53.016;-2.260;2022-07-23T05:41:19;35.15;;;16.33;;
44670;SDS011;48397;53.016;-2.260;2022-07-23T05:43:47;35.70;;;16.50;;
44670;SDS011;48397;53.016;-2.260;2022-07-23T05:48:47;39.25;;;17.38;;
44670;SDS011;48397;53.016;-2.260;2022-07-23T05:51:42;36.42;;;16.02;;
44670;SDS011;48397;53.016;-2.260;2022-07-23T05:54:14;38.22;;;15.40;;
44670;SDS011;48397;53.016;-2.260;2022-07-23T05:56:42;28.70;;;14.13;;
44670;SDS011;48397;53.016;-2.260;2022-07-23T05:59:11;31.30;;;14.05;;
44670;SDS011;48397;53.016;-2.260;2022-07-23T06:01:40;33.55;;;14.70;;
44670;SDS011;48397;53.016;-2.260;2022-07-23T06:04:11;31.25;;;14.63;;
44670;SDS011;48397;53.016;-2.260;2022-07-23T06:06:45;33.75;;;15.38;;
44670;SDS011;48397;53.016;-2.260;2022-07-23T06:09:13;36.13;;;14.55;;
44670;SDS011;48397;53.016;-2.260;2022-07-23T06:11:41;31.45;;;14.90;;
44670;SDS011;48397;53.016;-2.260;2022-07-23T06:14:09;29.02;;;15.25;;
44670;SDS011;48397;53.016;-2.260;2022-07-23T06:16:49;31.33;;;14.57;;
44670;SDS011;48397;53.016;-2.260;2022-07-23T06:21:45;27.33;;;13.93;;
44670;SDS011;48397;53.016;-2.260;2022-07-23T06:24:16;33.38;;;16.02;;
44670;SDS011;48397;53.016;-2.260;2022-07-23T06:26:44;32.65;;;15.38;;
44670;SDS011;48397;53.016;-2.260;2022-07-23T06:31:41;30.40;;;14.15;;
44670;SDS011;48397;53.016;-2.260;2022-07-23T06:34:09;29.20;;;15.07;;
44670;SDS011;48397;53.016;-2.260;2022-07-23T06:39:05;35.28;;;14.90;;
44670;SDS011;48397;53.016;-2.260;2022-07-23T06:41:35;30.70;;;14.85;;
44670;SDS011;48397;53.016;-2.260;2022-07-23T06:44:03;34.50;;;14.63;;
44670;SDS011;48397;53.016;-2.260;2022-07-23T06:46:34;31.77;;;14.60;;
44670;SDS011;48397;53.016;-2.260;2022-07-23T06:49:02;29.00;;;14.70;;
44670;SDS011;48397;53.016;-2.260;2022-07-23T06:51:32;31.02;;;15.18;;
44670;SDS011;48397;53.016;-2.260;2022-07-23T06:54:01;30.40;;;14.13;;
44670;SDS011;48397;53.016;-2.260;2022-07-23T06:56:29;32.28;;;13.85;;
44670;SDS011;48397;53.016;-2.260;2022-07-23T06:58:56;32.05;;;15.48;;
44670;SDS011;48397;53.016;-2.260;2022-07-23T07:01:26;31.15;;;13.85;;
44670;SDS011;48397;53.016;-2.260;2022-07-23T07:03:54;28.58;;;13.20;;
44670;SDS011;48397;53.016;-2.260;2022-07-23T07:06:22;26.25;;;13.45;;
44670;SDS011;48397;53.016;-2.260;2022-07-23T07:08:51;27.15;;;14.20;;
44670;SDS011;48397;53.016;-2.260;2022-07-23T07:11:18;30.30;;;14.55;;
44670;SDS011;48397;53.016;-2.260;2022-07-23T07:13:46;28.27;;;13.60;;
44670;SDS011;48397;53.016;-2.260;2022-07-23T07:21:09;23.02;;;12.60;;
44670;SDS011;48397;53.016;-2.260;2022-07-23T07:26:05;24.70;;;12.73;;
44670;SDS011;48397;53.016;-2.260;2022-07-23T07:28:32;23.73;;;12.38;;
44670;SDS011;48397;53.016;-2.260;2022-07-23T07:31:00;26.27;;;13.45;;
44670;SDS011;48397;53.016;-2.260;2022-07-23T07:33:29;22.83;;;12.43;;
44670;SDS011;48397;53.016;-2.260;2022-07-23T07:35:57;20.58;;;10.70;;
44670;SDS011;48397;53.016;-2.260;2022-07-23T07:38:25;19.67;;;11.40;;
44670;SDS011;48397;53.016;-2.260;2022-07-23T07:40:53;22.15;;;11.75;;
44670;SDS011;48397;53.016;-2.260;2022-07-23T07:43:21;27.27;;;11.10;;
44670;SDS011;48397;53.016;-2.260;2022-07-23T07:45:49;18.50;;;10.57;;
44670;SDS011;48397;53.016;-2.260;2022-07-23T07:50:35;18.33;;;10.43;;
44670;SDS011;48397;53.016;-2.260;2022-07-23T07:57:59;17.83;;;9.85;;
44670;SDS011;48397;53.016;-2.260;2022-07-23T08:00:28;19.38;;;9.68;;
44670;SDS011;48397;53.016;-2.260;2022-07-23T08:02:56;18.65;;;9.73;;
44670;SDS011;48397;53.016;-2.260;2022-07-23T08:05:27;14.50;;;8.65;;
44670;SDS011;48397;53.016;-2.260;2022-07-23T08:07:57;18.80;;;9.15;;
44670;SDS011;48397;53.016;-2.260;2022-07-23T08:10:27;15.07;;;7.40;;
44670;SDS011;48397;53.016;-2.260;2022-07-23T08:12:55;13.15;;;7.13;;
44670;SDS011;48397;53.016;-2.260;2022-07-23T08:15:25;11.98;;;7.40;;
44670;SDS011;48397;53.016;-2.260;2022-07-23T08:17:55;12.50;;;6.82;;
44670;SDS011;48397;53.016;-2.260;2022-07-23T08:20:23;12.48;;;6.13;;
44670;SDS011;48397;53.016;-2.260;2022-07-23T08:22:55;12.05;;;6.40;;
44670;SDS011;48397;53.016;-2.260;2022-07-23T08:25:26;9.35;;;5.28;;
44670;SDS011;48397;53.016;-2.260;2022-07-23T08:27:59;9.88;;;5.00;;
44670;SDS011;48397;53.016;-2.260;2022-07-23T08:30:27;9.65;;;5.10;;
44670;SDS011;48397;53.016;-2.260;2022-07-23T08:33:06;7.90;;;4.90;;
44670;SDS011;48397;53.016;-2.260;2022-07-23T08:35:57;12.52;;;4.82;;
44670;SDS011;48397;53.016;-2.260;2022-07-23T08:38:25;8.05;;;4.75;;
44670;SDS011;48397;53.016;-2.260;2022-07-23T08:40:55;6.13;;;3.95;;
44670;SDS011;48397;53.016;-2.260;2022-07-23T08:43:27;7.15;;;3.35;;
44670;SDS011;48397;53.016;-2.260;2022-07-23T08:45:57;8.05;;;4.47;;
44670;SDS011;48397;53.016;-2.260;2022-07-23T08:48:28;8.65;;;4.35;;
44670;SDS011;48397;53.016;-2.260;2022-07-23T08:50:59;7.45;;;4.47;;
44670;SDS011;48397;53.016;-2.260;2022-07-23T08:53:29;9.18;;;4.32;;
44670;SDS011;48397;53.016;-2.260;2022-07-23T08:55:58;4.82;;;3.40;;
44670;SDS011;48397;53.016;-2.260;2022-07-23T08:58:29;5.35;;;3.45;;
44670;SDS011;48397;53.016;-2.260;2022-07-23T09:00:58;5.22;;;3.10;;
44670;SDS011;48397;53.016;-2.260;2022-07-23T09:03:30;5.18;;;2.80;;
44670;SDS011;48397;53.016;-2.260;2022-07-23T09:06:00;4.45;;;2.58;;
44670;SDS011;48397;53.016;-2.260;2022-07-23T09:08:38;5.75;;;3.33;;
44670;SDS011;48397;53.016;-2.260;2022-07-23T09:11:11;7.90;;;3.40;;
44670;SDS011;48397;53.016;-2.260;2022-07-23T09:13:53;5.90;;;3.08;;
44670;SDS011;48397;53.016;-2.260;2022-07-23T09:16:25;6.38;;;2.70;;
44670;SDS011;48397;53.016;-2.260;2022-07-23T09:19:00;8.07;;;3.05;;
44670;SDS011;48397;53.016;-2.260;2022-07-23T09:21:30;5.07;;;3.10;;
44670;SDS011;48397;53.016;-2.260;2022-07-23T09:32:02;4.13;;;2.72;;
44670;SDS011;48397;53.016;-2.260;2022-07-23T09:34:35;4.55;;;2.67;;
44670;SDS011;48397;53.016;-2.260;2022-07-23T09:37:10;5.10;;;2.97;;
44670;SDS011;48397;53.016;-2.260;2022-07-23T09:39:43;3.78;;;2.20;;
44670;SDS011;48397;53.016;-2.260;2022-07-23T09:42:22;3.78;;;2.53;;
44670;SDS011;48397;53.016;-2.260;2022-07-23T09:44:52;4.82;;;2.35;;
44670;SDS011;48397;53.016;-2.260;2022-07-23T09:47:21;4.35;;;2.65;;
44670;SDS011;48397;53.016;-2.260;2022-07-23T09:50:03;6.25;;;2.75;;
44670;SDS011;48397;53.016;-2.260;2022-07-23T09:55:15;5.70;;;2.83;;
44670;SDS011;48397;53.016;-2.260;2022-07-23T09:57:45;6.10;;;2.92;;
44670;SDS011;48397;53.016;-2.260;2022-07-23T10:00:17;7.30;;;2.70;;
44670;SDS011;48397;53.016;-2.260;2022-07-23T10:02:46;6.78;;;2.97;;
44670;SDS011;48397;53.016;-2.260;2022-07-23T10:05:27;6.72;;;2.53;;
44670;SDS011;48397;53.016;-2.260;2022-07-23T10:08:16;4.28;;;2.70;;
44670;SDS011;48397;53.016;-2.260;2022-07-23T10:10:48;8.15;;;2.97;;
44670;SDS011;48397;53.016;-2.260;2022-07-23T10:13:36;4.25;;;2.92;;
44670;SDS011;48397;53.016;-2.260;2022-07-23T10:16:32;4.80;;;2.90;;
44670;SDS011;48397;53.016;-2.260;2022-07-23T10:24:08;5.80;;;3.10;;
44670;SDS011;48397;53.016;-2.260;2022-07-23T10:26:49;7.57;;;3.30;;
44670;SDS011;48397;53.016;-2.260;2022-07-23T10:32:26;7.10;;;3.70;;
44670;SDS011;48397;53.016;-2.260;2022-07-23T10:35:06;5.18;;;3.67;;
44670;SDS011;48397;53.016;-2.260;2022-07-23T10:37:39;8.07;;;3.78;;
44670;SDS011;48397;53.016;-2.260;2022-07-23T10:42:40;9.10;;;4.03;;
44670;SDS011;48397;53.016;-2.260;2022-07-23T10:45:25;6.40;;;3.60;;
44670;SDS011;48397;53.016;-2.260;2022-07-23T10:48:14;5.72;;;3.67;;
44670;SDS011;48397;53.016;-2.260;2022-07-23T10:50:43;8.02;;;3.65;;
44670;SDS011;48397;53.016;-2.260;2022-07-23T10:53:52;5.82;;;3.67;;
44670;SDS011;48397;53.016;-2.260;2022-07-23T10:59:14;10.05;;;3.60;;
44670;SDS011;48397;53.016;-2.260;2022-07-23T11:01:42;6.15;;;2.70;;
44670;SDS011;48397;53.016;-2.260;2022-07-23T11:04:09;6.60;;;3.17;;
44670;SDS011;48397;53.016;-2.260;2022-07-23T11:17:28;4.03;;;2.97;;
44670;SDS011;48397;53.016;-2.260;2022-07-23T11:22:36;5.63;;;3.03;;
44670;SDS011;48397;53.016;-2.260;2022-07-23T11:25:07;5.32;;;3.38;;
44670;SDS011;48397;53.016;-2.260;2022-07-23T11:27:42;6.80;;;3.50;;
44670;SDS011;48397;53.016;-2.260;2022-07-23T11:32:54;7.05;;;3.40;;
44670;SDS011;48397;53.016;-2.260;2022-07-23T11:38:17;6.80;;;2.97;;
44670;SDS011;48397;53.016;-2.260;2022-07-23T11:40:51;5.13;;;2.90;;
44670;SDS011;48397;53.016;-2.260;2022-07-23T11:43:26;7.35;;;3.40;;
44670;SDS011;48397;53.016;-2.260;2022-07-23T11:45:57;6.22;;;3.38;;
44670;SDS011;48397;53.016;-2.260;2022-07-23T11:48:28;5.18;;;3.47;;
44670;SDS011;48397;53.016;-2.260;2022-07-23T11:50:57;6.30;;;3.13;;
44670;SDS011;48397;53.016;-2.260;2022-07-23T11:53:30;6.85;;;3.15;;
44670;SDS011;48397;53.016;-2.260;2022-07-23T11:56:10;4.93;;;3.20;;
44670;SDS011;48397;53.016;-2.260;2022-07-23T11:58:39;5.00;;;2.83;;
44670;SDS011;48397;53.016;-2.260;2022-07-23T12:01:20;4.38;;;2.97;;
44670;SDS011;48397;53.016;-2.260;2022-07-23T12:03:51;4.30;;;3.00;;
44670;SDS011;48397;53.016;-2.260;2022-07-23T12:06:19;4.93;;;3.15;;
44670;SDS011;48397;53.016;-2.260;2022-07-23T12:08:47;8.23;;;3.60;;
44670;SDS011;48397;53.016;-2.260;2022-07-23T12:16:10;5.28;;;3.60;;
44670;SDS011;48397;53.016;-2.260;2022-07-23T12:18:38;6.38;;;3.65;;
44670;SDS011;48397;53.016;-2.260;2022-07-23T12:21:05;7.60;;;3.90;;
44670;SDS011;48397;53.016;-2.260;2022-07-23T12:23:34;7.82;;;4.15;;
44670;SDS011;48397;53.016;-2.260;2022-07-23T12:26:05;7.82;;;4.53;;
44670;SDS011;48397;53.016;-2.260;2022-07-23T12:28:34;5.57;;;4.00;;
44670;SDS011;48397;53.016;-2.260;2022-07-23T12:31:04;6.78;;;4.15;;
44670;SDS011;48397;53.016;-2.260;2022-07-23T12:33:37;6.55;;;3.83;;
44670;SDS011;48397;53.016;-2.260;2022-07-23T12:36:07;6.43;;;4.00;;
44670;SDS011;48397;53.016;-2.260;2022-07-23T12:38:38;6.03;;;3.95;;
44670;SDS011;48397;53.016;-2.260;2022-07-23T12:41:14;7.40;;;4.30;;
44670;SDS011;48397;53.016;-2.260;2022-07-23T12:43:43;6.65;;;4.45;;
44670;SDS011;48397;53.016;-2.260;2022-07-23T12:46:13;6.68;;;4.72;;
44670;SDS011;48397;53.016;-2.260;2022-07-23T12:51:30;6.95;;;5.20;;
44670;SDS011;48397;53.016;-2.260;2022-07-23T12:54:06;7.00;;;5.30;;
44670;SDS011;48397;53.016;-2.260;2022-07-23T12:56:37;9.32;;;4.95;;
44670;SDS011;48397;53.016;-2.260;2022-07-23T12:59:07;7.65;;;5.10;;
44670;SDS011;48397;53.016;-2.260;2022-07-23T13:01:44;6.32;;;4.75;;
44670;SDS011;48397;53.016;-2.260;2022-07-23T13:04:25;7.47;;;4.80;;
44670;SDS011;48397;53.016;-2.260;2022-07-23T13:06:54;6.90;;;4.72;;
44670;SDS011;48397;53.016;-2.260;2022-07-23T13:12:07;8.33;;;5.07;;
44670;SDS011;48397;53.016;-2.260;2022-07-23T13:14:37;6.35;;;4.80;;
44670;SDS011;48397;53.016;-2.260;2022-07-23T13:17:05;7.22;;;5.00;;
44670;SDS011;48397;53.016;-2.260;2022-07-23T13:23:15;7.38;;;4.78;;
44670;SDS011;48397;53.016;-2.260;2022-07-23T13:25:44;5.88;;;4.53;;
44670;SDS011;48397;53.016;-2.260;2022-07-23T13:28:13;8.60;;;4.95;;
44670;SDS011;48397;53.016;-2.260;2022-07-23T13:30:42;9.45;;;4.43;;
44670;SDS011;48397;53.016;-2.260;2022-07-23T13:33:11;8.73;;;4.22;;
44670;SDS011;48397;53.016;-2.260;2022-07-23T13:35:38;7.45;;;4.28;;
44670;SDS011;48397;53.016;-2.260;2022-07-23T13:38:06;8.82;;;4.90;;
44670;SDS011;48397;53.016;-2.260;2022-07-23T13:40:40;6.35;;;4.45;;
44670;SDS011;48397;53.016;-2.260;2022-07-23T13:43:10;6.57;;;4.50;;
44670;SDS011;48397;53.016;-2.260;2022-07-23T13:45:40;9.38;;;4.50;;
44670;SDS011;48397;53.016;-2.260;2022-07-23T13:48:14;5.85;;;4.25;;
44670;SDS011;48397;53.016;-2.260;2022-07-23T13:50:44;7.68;;;4.82;;
44670;SDS011;48397;53.016;-2.260;2022-07-23T13:53:13;6.40;;;4.68;;
44670;SDS011;48397;53.016;-2.260;2022-07-23T13:55:44;6.05;;;4.30;;
44670;SDS011;48397;53.016;-2.260;2022-07-23T13:58:15;6.32;;;4.30;;
44670;SDS011;48397;53.016;-2.260;2022-07-23T14:00:45;7.00;;;4.20;;
44670;SDS011;48397;53.016;-2.260;2022-07-23T14:03:19;6.38;;;4.43;;
44670;SDS011;48397;53.016;-2.260;2022-07-23T14:05:51;6.25;;;4.20;;
44670;SDS011;48397;53.016;-2.260;2022-07-23T14:08:23;7.40;;;4.30;;
44670;SDS011;48397;53.016;-2.260;2022-07-23T14:10:51;7.47;;;4.00;;
44670;SDS011;48397;53.016;-2.260;2022-07-23T14:15:47;7.40;;;4.28;;
44670;SDS011;48397;53.016;-2.260;2022-07-23T14:18:17;7.35;;;4.07;;
44670;SDS011;48397;53.016;-2.260;2022-07-23T14:20:44;10.35;;;4.68;;
44670;SDS011;48397;53.016;-2.260;2022-07-23T14:25:41;6.82;;;4.30;;
44670;SDS011;48397;53.016;-2.260;2022-07-23T14:28:10;9.88;;;5.00;;
44670;SDS011;48397;53.016;-2.260;2022-07-23T14:30:39;6.82;;;4.32;;
44670;SDS011;48397;53.016;-2.260;2022-07-23T14:33:08;8.00;;;4.60;;
44670;SDS011;48397;53.016;-2.260;2022-07-23T14:35:38;6.95;;;4.25;;
44670;SDS011;48397;53.016;-2.260;2022-07-23T14:38:06;8.35;;;4.68;;
44670;SDS011;48397;53.016;-2.260;2022-07-23T14:45:29;6.70;;;4.32;;
44670;SDS011;48397;53.016;-2.260;2022-07-23T14:47:57;12.30;;;4.72;;
44670;SDS011;48397;53.016;-2.260;2022-07-23T14:50:25;11.40;;;4.82;;
44670;SDS011;48397;53.016;-2.260;2022-07-23T14:52:53;7.32;;;4.63;;
44670;SDS011;48397;53.016;-2.260;2022-07-23T14:55:21;7.85;;;4.38;;
44670;SDS011;48397;53.016;-2.260;2022-07-23T14:57:48;9.25;;;4.88;;
44670;SDS011;48397;53.016;-2.260;2022-07-23T15:02:53;8.25;;;4.32;;
44670;SDS011;48397;53.016;-2.260;2022-07-23T15:05:22;8.23;;;4.45;;
44670;SDS011;48397;53.016;-2.260;2022-07-23T15:07:51;10.07;;;4.70;;
44670;SDS011;48397;53.016;-2.260;2022-07-23T15:10:19;7.53;;;5.13;;
44670;SDS011;48397;53.016;-2.260;2022-07-23T15:12:49;7.32;;;4.53;;
44670;SDS011;48397;53.016;-2.260;2022-07-23T15:15:16;7.30;;;4.53;;
44670;SDS011;48397;53.016;-2.260;2022-07-23T15:17:45;7.20;;;4.80;;
44670;SDS011;48397;53.016;-2.260;2022-07-23T15:20:16;8.70;;;5.07;;
44670;SDS011;48397;53.016;-2.260;2022-07-23T15:23:02;6.88;;;4.57;;
44670;SDS011;48397;53.016;-2.260;2022-07-23T15:25:34;7.63;;;4.53;;
44670;SDS011;48397;53.016;-2.260;2022-07-23T15:28:04;8.10;;;4.53;;
44670;SDS011;48397;53.016;-2.260;2022-07-23T15:30:35;6.53;;;4.15;;
44670;SDS011;48397;53.016;-2.260;2022-07-23T15:33:04;5.82;;;4.15;;
44670;SDS011;48397;53.016;-2.260;2022-07-23T15:35:32;9.48;;;4.65;;
44670;SDS011;48397;53.016;-2.260;2022-07-23T15:38:00;6.20;;;4.25;;
44670;SDS011;48397;53.016;-2.260;2022-07-23T15:40:39;7.75;;;4.18;;
44670;SDS011;48397;53.016;-2.260;2022-07-23T15:43:06;6.60;;;4.47;;
44670;SDS011;48397;53.016;-2.260;2022-07-23T15:45:38;7.82;;;4.70;;
44670;SDS011;48397;53.016;-2.260;2022-07-23T15:48:06;7.07;;;4.90;;
44670;SDS011;48397;53.016;-2.260;2022-07-23T15:50:34;9.07;;;4.90;;
44670;SDS011;48397;53.016;-2.260;2022-07-23T15:55:30;6.72;;;3.85;;
44670;SDS011;48397;53.016;-2.260;2022-07-23T16:00:25;8.40;;;4.00;;
44670;SDS011;48397;53.016;-2.260;2022-07-23T16:05:20;5.75;;;3.78;;
44670;SDS011;48397;53.016;-2.260;2022-07-23T16:07:48;8.05;;;3.92;;
44670;SDS011;48397;53.016;-2.260;2022-07-23T16:10:16;10.00;;;4.15;;
44670;SDS011;48397;53.016;-2.260;2022-07-23T16:15:11;5.40;;;3.58;;
44670;SDS011;48397;53.016;-2.260;2022-07-23T16:17:39;5.30;;;3.75;;
44670;SDS011;48397;53.016;-2.260;2022-07-23T16:20:06;5.60;;;3.70;;
44670;SDS011;48397;53.016;-2.260;2022-07-23T16:22:35;6.68;;;3.13;;
44670;SDS011;48397;53.016;-2.260;2022-07-23T16:25:03;5.90;;;3.58;;
44670;SDS011;48397;53.016;-2.260;2022-07-23T16:27:32;6.35;;;3.88;;
44670;SDS011;48397;53.016;-2.260;2022-07-23T16:30:01;7.32;;;3.55;;
44670;SDS011;48397;53.016;-2.260;2022-07-23T16:32:30;5.88;;;3.50;;
44670;SDS011;48397;53.016;-2.260;2022-07-23T16:34:57;6.30;;;3.38;;
44670;SDS011;48397;53.016;-2.260;2022-07-23T16:37:26;5.30;;;3.25;;
44670;SDS011;48397;53.016;-2.260;2022-07-23T16:42:21;4.88;;;3.13;;
44670;SDS011;48397;53.016;-2.260;2022-07-23T16:44:48;5.70;;;3.40;;
44670;SDS011;48397;53.016;-2.260;2022-07-23T16:47:16;5.85;;;3.17;;
44670;SDS011;48397;53.016;-2.260;2022-07-23T16:49:46;4.80;;;3.10;;
44670;SDS011;48397;53.016;-2.260;2022-07-23T16:52:14;4.65;;;2.80;;
44670;SDS011;48397;53.016;-2.260;2022-07-23T16:54:42;6.65;;;2.88;;